Terminal Aerodrome Forecast
Issued by NWS

Current Version | Previous Version | Text Only | Print | Product List | Glossary On
Versions: 1 2 3 4 5 6 7 8 9 10 11 12 13 14 15 16 17 18 19 20 21 22 23 24 25 26 27 28 29 30 31 32 33 34 35 36 37 38 39 40 41 42 43 44
000
FTUS42 KGSP 032203 AAA
TAFHKY
TAF AMD
KHKY 032203Z 0322/0418 00000KT P6SM OVC007
     FM040100 00000KT 4SM BR OVC007
     FM040400 22003KT 2SM BR OVC005
     FM041000 22006KT 1SM BR OVC003 WS020/23040KT
     FM041400 22008KT P6SM OVC008
     FM041700 22011KT P6SM BKN045=

USA.gov is the U.S. government's official web portal to all federal, state and local government web resources and services.